Time;durP1;ratioP1;P1;durP2;ratioP2;P2;SDS_P1;SDS_P2;PMS_P1;PMS_P2;Temp;Humidity;BMP_temperature;BMP_pressure;BME280_temperature;BME280_humidity;BME280_pressure;Samples;Min_cycle;Max_cycle;Signal;HPM_P1;HPM_P2
2023/08/30 00:01:26;;;;;;;5.00;4.25;;;;;;;;;;5037759;28;20632;-69
2023/08/30 00:04:11;;;;;;;8.93;4.88;;;;;;;;;;5029489;28;20890;-72
2023/08/30 00:06:57;;;;;;;6.18;4.15;;;;;;;;;;5044800;28;20103;-69
2023/08/30 00:09:43;;;;;;;9.35;4.85;;;;;;;;;;5028702;28;20045;-69
2023/08/30 00:12:28;;;;;;;6.30;4.55;;;;;;;;;;5035217;28;20044;-69
2023/08/30 00:15:14;;;;;;;19.10;5.65;;;;;;;;;;5031217;28;20033;-69
2023/08/30 00:17:59;;;;;;;7.30;4.93;;;;;;;;;;5017725;28;20037;-69
2023/08/30 00:20:44;;;;;;;11.18;5.57;;;;;;;;;;5033194;28;20376;-77
2023/08/30 00:23:29;;;;;;;4.85;3.88;;;;;;;;;;5036012;28;20105;-71
2023/08/30 00:26:15;;;;;;;5.78;4.65;;;;;;;;;;5031332;28;20032;-78
2023/08/30 00:29:00;;;;;;;6.75;3.97;;;;;;;;;;5034606;28;20479;-79
2023/08/30 00:31:45;;;;;;;5.75;4.05;;;;;;;;;;5029803;28;20074;-78
2023/08/30 00:34:30;;;;;;;5.55;4.32;;;;;;;;;;5036919;28;20086;-78
2023/08/30 00:37:15;;;;;;;7.22;4.65;;;;;;;;;;5031622;28;20541;-78
2023/08/30 00:40:01;;;;;;;7.47;4.82;;;;;;;;;;5030899;28;20025;-72
2023/08/30 00:42:46;;;;;;;4.70;3.97;;;;;;;;;;5028943;28;20506;-75
2023/08/30 00:45:32;;;;;;;5.57;4.30;;;;;;;;;;5030313;28;20029;-73
2023/08/30 00:48:18;;;;;;;8.75;4.78;;;;;;;;;;5031334;28;20045;-75
2023/08/30 00:51:04;;;;;;;5.47;3.78;;;;;;;;;;5023625;28;20036;-74
2023/08/30 00:53:49;;;;;;;7.03;4.07;;;;;;;;;;5023809;28;20032;-74
2023/08/30 00:56:35;;;;;;;7.57;4.43;;;;;;;;;;5027395;28;20101;-75
2023/08/30 00:59:20;;;;;;;10.90;4.55;;;;;;;;;;5055470;28;20187;-78
2023/08/30 01:02:05;;;;;;;7.45;4.78;;;;;;;;;;5031109;28;20583;-73
2023/08/30 01:04:51;;;;;;;13.25;4.75;;;;;;;;;;5038965;28;20461;-72
2023/08/30 01:07:36;;;;;;;8.82;4.47;;;;;;;;;;5028275;28;20060;-73
2023/08/30 01:10:25;;;;;;;6.25;4.22;;;;;;;;;;5027233;28;20360;-72
2023/08/30 01:13:11;;;;;;;9.13;4.47;;;;;;;;;;5030720;28;20054;-72
2023/08/30 01:15:57;;;;;;;5.18;3.88;;;;;;;;;;5029592;28;20048;-67
2023/08/30 01:18:43;;;;;;;6.72;4.47;;;;;;;;;;5022621;28;20036;-74
2023/08/30 01:21:34;;;;;;;5.80;4.05;;;;;;;;;;5031234;28;20029;-66
2023/08/30 01:24:42;;;;;;;5.47;4.00;;;;;;;;;;5027318;28;20040;-68
2023/08/30 01:27:28;;;;;;;7.75;4.82;;;;;;;;;;5032726;28;20044;-67
2023/08/30 01:30:15;;;;;;;6.95;4.03;;;;;;;;;;5031333;28;20098;-67
2023/08/30 01:33:02;;;;;;;6.65;4.13;;;;;;;;;;5029302;28;20033;-68
2023/08/30 01:35:47;;;;;;;6.05;4.15;;;;;;;;;;5035133;28;20538;-70
2023/08/30 01:38:33;;;;;;;5.63;4.32;;;;;;;;;;5030080;28;20044;-71
2023/08/30 01:41:19;;;;;;;6.22;4.80;;;;;;;;;;5036336;28;20041;-70
2023/08/30 01:44:08;;;;;;;5.93;4.20;;;;;;;;;;5035061;28;20040;-72
2023/08/30 01:46:53;;;;;;;8.10;4.20;;;;;;;;;;5017563;28;20052;-71
2023/08/30 01:49:39;;;;;;;6.68;3.95;;;;;;;;;;5029272;28;20041;-72
2023/08/30 01:52:25;;;;;;;7.43;4.53;;;;;;;;;;5035533;28;20039;-75
2023/08/30 01:55:13;;;;;;;6.72;4.65;;;;;;;;;;5033163;28;20168;-71
2023/08/30 01:57:58;;;;;;;5.63;4.68;;;;;;;;;;5034306;28;20087;-74
2023/08/30 02:00:43;;;;;;;6.95;4.53;;;;;;;;;;5032826;28;20105;-74
2023/08/30 02:03:29;;;;;;;7.07;3.83;;;;;;;;;;5040222;28;20120;-75
2023/08/30 02:06:21;;;;;;;6.20;4.60;;;;;;;;;;5034848;28;20044;-75
2023/08/30 02:09:16;;;;;;;9.57;4.22;;;;;;;;;;5041675;28;20098;-74
2023/08/30 02:12:05;;;;;;;6.63;4.20;;;;;;;;;;5038136;28;20025;-77
2023/08/30 02:14:50;;;;;;;6.22;4.22;;;;;;;;;;5039677;28;20040;-73
2023/08/30 02:17:37;;;;;;;5.95;3.88;;;;;;;;;;5034128;28;20041;-72
2023/08/30 02:20:22;;;;;;;6.78;4.50;;;;;;;;;;5038433;28;20074;-73
2023/08/30 02:23:09;;;;;;;5.10;4.20;;;;;;;;;;5036893;28;20103;-74
2023/08/30 02:25:55;;;;;;;5.82;4.05;;;;;;;;;;5030017;28;20043;-72
2023/08/30 02:28:40;;;;;;;6.40;4.22;;;;;;;;;;5025177;28;20044;-74
2023/08/30 02:31:26;;;;;;;6.05;4.50;;;;;;;;;;5034473;28;20033;-77
2023/08/30 02:34:11;;;;;;;6.35;4.07;;;;;;;;;;5048878;28;20395;-68
2023/08/30 02:36:56;;;;;;;8.23;4.20;;;;;;;;;;5029457;28;20052;-68
2023/08/30 02:39:41;;;;;;;5.15;3.53;;;;;;;;;;5039844;28;20032;-67
2023/08/30 02:42:26;;;;;;;4.13;3.60;;;;;;;;;;5029185;28;20072;-67
2023/08/30 02:45:12;;;;;;;7.20;4.80;;;;;;;;;;5038371;28;20068;-70
2023/08/30 02:47:57;;;;;;;6.28;3.88;;;;;;;;;;5038834;28;20040;-76
2023/08/30 02:50:42;;;;;;;4.63;3.75;;;;;;;;;;5036917;28;20064;-70
2023/08/30 02:53:28;;;;;;;11.60;4.75;;;;;;;;;;5033680;28;20472;-71
2023/08/30 02:56:13;;;;;;;6.00;3.80;;;;;;;;;;5036841;28;20650;-71
2023/08/30 02:59:35;;;;;;;5.90;4.03;;;;;;;;;;5037132;28;20121;-70
2023/08/30 03:02:20;;;;;;;6.35;4.10;;;;;;;;;;5034095;28;20044;-71
2023/08/30 03:05:06;;;;;;;6.22;3.90;;;;;;;;;;5033474;28;20024;-73
2023/08/30 03:07:52;;;;;;;6.18;4.15;;;;;;;;;;5029973;28;20533;-74
2023/08/30 03:10:38;;;;;;;4.05;3.45;;;;;;;;;;5040064;28;20033;-68
2023/08/30 03:13:38;;;;;;;6.65;3.78;;;;;;;;;;5035990;28;20072;-71
2023/08/30 03:16:24;;;;;;;5.13;3.50;;;;;;;;;;5031485;28;20348;-72
2023/08/30 03:19:09;;;;;;;6.65;3.95;;;;;;;;;;5038443;28;20041;-69
2023/08/30 03:21:54;;;;;;;7.97;3.67;;;;;;;;;;5041479;28;20044;-70
2023/08/30 03:24:39;;;;;;;6.68;3.60;;;;;;;;;;5033867;28;20033;-75
2023/08/30 03:27:41;;;;;;;;;;;;;;;;;;;;;
2023/08/30 03:30:26;;;;;;;5.40;4.00;;;;;;;;;;5039145;28;20037;-66
2023/08/30 03:33:13;;;;;;;5.45;3.75;;;;;;;;;;5017605;28;20032;-67
2023/08/30 03:35:59;;;;;;;7.70;4.07;;;;;;;;;;5036848;28;20051;-69
2023/08/30 03:38:45;;;;;;;4.80;3.67;;;;;;;;;;5033772;28;20029;-68
2023/08/30 03:41:30;;;;;;;6.30;4.20;;;;;;;;;;5030628;28;20037;-68
2023/08/30 03:44:16;;;;;;;8.63;4.43;;;;;;;;;;5034362;28;20072;-73
2023/08/30 03:47:02;;;;;;;6.30;4.40;;;;;;;;;;5034355;28;20028;-69
2023/08/30 03:49:47;;;;;;;4.90;4.10;;;;;;;;;;5036996;28;20855;-70
2023/08/30 03:52:33;;;;;;;8.10;4.13;;;;;;;;;;5027927;28;20052;-68
2023/08/30 03:55:18;;;;;;;5.75;4.25;;;;;;;;;;5038937;28;20072;-68
2023/08/30 03:58:03;;;;;;;6.90;4.65;;;;;;;;;;5031979;28;20032;-68
2023/08/30 04:00:48;;;;;;;6.47;4.28;;;;;;;;;;5033291;28;20477;-67
2023/08/30 04:03:33;;;;;;;6.75;4.95;;;;;;;;;;5038520;28;20071;-67
2023/08/30 04:06:19;;;;;;;10.02;4.30;;;;;;;;;;5032673;28;20036;-68
2023/08/30 04:09:04;;;;;;;8.95;4.68;;;;;;;;;;5030687;28;20037;-69
2023/08/30 04:11:49;;;;;;;8.27;5.20;;;;;;;;;;5034963;28;20040;-69
2023/08/30 04:14:34;;;;;;;9.57;4.40;;;;;;;;;;5037500;28;20676;-67
2023/08/30 04:17:20;;;;;;;9.10;5.07;;;;;;;;;;5037039;28;20115;-68
2023/08/30 04:20:05;;;;;;;10.88;5.15;;;;;;;;;;5038152;28;20495;-73
2023/08/30 04:22:50;;;;;;;6.05;4.28;;;;;;;;;;5032567;28;20120;-68
2023/08/30 04:25:36;;;;;;;7.55;4.90;;;;;;;;;;5034003;28;20044;-68
2023/08/30 04:28:22;;;;;;;7.45;5.43;;;;;;;;;;5056867;28;20060;-66
2023/08/30 04:31:07;;;;;;;6.47;4.63;;;;;;;;;;5029379;28;20159;-67
2023/08/30 04:33:55;;;;;;;6.88;4.65;;;;;;;;;;5033054;28;20060;-67
2023/08/30 04:36:40;;;;;;;9.60;5.75;;;;;;;;;;5042391;28;20071;-66
2023/08/30 04:39:25;;;;;;;7.13;5.00;;;;;;;;;;5048081;28;20025;-77
2023/08/30 04:42:10;;;;;;;8.40;4.82;;;;;;;;;;5036208;28;20032;-66
2023/08/30 04:44:56;;;;;;;12.57;6.03;;;;;;;;;;5036241;28;20472;-66
2023/08/30 04:47:43;;;;;;;7.65;5.15;;;;;;;;;;5034398;28;20602;-68
2023/08/30 04:50:28;;;;;;;8.63;5.05;;;;;;;;;;5040221;28;20107;-70
2023/08/30 04:53:13;;;;;;;7.38;5.05;;;;;;;;;;5038898;28;20029;-68
2023/08/30 04:55:59;;;;;;;7.57;5.40;;;;;;;;;;5039896;28;20049;-67
2023/08/30 04:58:44;;;;;;;8.02;5.45;;;;;;;;;;5040736;28;20119;-75
2023/08/30 05:01:30;;;;;;;6.55;5.13;;;;;;;;;;5033875;28;20067;-71
2023/08/30 05:04:15;;;;;;;8.15;4.63;;;;;;;;;;5036968;28;20064;-71
2023/08/30 05:07:00;;;;;;;6.65;4.95;;;;;;;;;;5037051;28;20071;-72
2023/08/30 05:09:45;;;;;;;8.88;5.15;;;;;;;;;;5024229;28;20079;-72
2023/08/30 05:12:30;;;;;;;7.38;5.60;;;;;;;;;;5030568;28;20079;-69
2023/08/30 05:15:16;;;;;;;7.72;5.32;;;;;;;;;;5035301;28;20614;-69
2023/08/30 05:18:01;;;;;;;7.38;5.00;;;;;;;;;;5029395;28;20029;-72
2023/08/30 05:20:46;;;;;;;9.48;5.95;;;;;;;;;;5016508;28;20126;-72
2023/08/30 05:23:32;;;;;;;10.80;6.20;;;;;;;;;;5032567;28;20061;-75
2023/08/30 05:26:19;;;;;;;11.30;6.88;;;;;;;;;;5039032;28;20107;-73
2023/08/30 05:29:04;;;;;;;11.27;5.97;;;;;;;;;;5024725;28;20113;-71
2023/08/30 05:31:49;;;;;;;9.70;6.20;;;;;;;;;;5034196;28;20047;-71
2023/08/30 05:34:35;;;;;;;8.80;6.03;;;;;;;;;;5030525;28;20033;-73
2023/08/30 05:37:20;;;;;;;7.97;5.68;;;;;;;;;;5033519;28;20033;-66
2023/08/30 05:40:05;;;;;;;7.65;5.88;;;;;;;;;;5060457;28;20032;-67
2023/08/30 05:42:51;;;;;;;8.43;5.78;;;;;;;;;;5029270;28;20044;-66
2023/08/30 05:45:37;;;;;;;9.45;6.25;;;;;;;;;;5034507;28;20433;-69
2023/08/30 05:48:22;;;;;;;7.78;5.65;;;;;;;;;;5012912;28;20064;-70
2023/08/30 05:51:07;;;;;;;8.27;5.38;;;;;;;;;;5015189;28;20033;-65
2023/08/30 05:53:52;;;;;;;8.88;5.53;;;;;;;;;;5010873;28;20040;-67
2023/08/30 05:56:38;;;;;;;11.23;6.38;;;;;;;;;;5002966;28;20048;-66
2023/08/30 05:59:23;;;;;;;9.00;5.72;;;;;;;;;;5025518;28;20021;-67
2023/08/30 06:02:08;;;;;;;8.10;6.32;;;;;;;;;;5037294;28;20565;-66
2023/08/30 06:04:53;;;;;;;11.00;5.95;;;;;;;;;;5035380;28;20027;-68
2023/08/30 06:07:39;;;;;;;8.80;6.30;;;;;;;;;;5038334;28;20090;-64
2023/08/30 06:10:24;;;;;;;9.85;6.50;;;;;;;;;;5021926;28;20545;-69
2023/08/30 06:13:09;;;;;;;8.77;5.95;;;;;;;;;;5032563;28;20043;-74
2023/08/30 06:15:54;;;;;;;10.30;6.15;;;;;;;;;;5032604;28;20033;-74
2023/08/30 06:18:41;;;;;;;8.57;6.05;;;;;;;;;;5039890;28;20021;-75
2023/08/30 06:21:26;;;;;;;8.63;6.32;;;;;;;;;;5034532;28;20530;-74
2023/08/30 06:24:11;;;;;;;7.90;5.30;;;;;;;;;;5034928;28;20029;-76
2023/08/30 06:26:57;;;;;;;10.48;6.28;;;;;;;;;;5035945;28;20036;-75
2023/08/30 06:29:42;;;;;;;8.68;6.10;;;;;;;;;;5034394;28;20189;-76
2023/08/30 06:32:27;;;;;;;7.72;5.57;;;;;;;;;;5026910;28;20071;-70
2023/08/30 06:35:13;;;;;;;9.90;6.53;;;;;;;;;;5025765;28;20041;-72
2023/08/30 06:37:58;;;;;;;9.43;6.15;;;;;;;;;;5028397;28;20033;-67
2023/08/30 06:40:44;;;;;;;9.38;5.68;;;;;;;;;;5011540;28;20040;-67
2023/08/30 06:43:29;;;;;;;8.57;5.97;;;;;;;;;;5016387;28;20029;-69
2023/08/30 06:46:14;;;;;;;8.23;5.43;;;;;;;;;;5010191;28;20098;-70
2023/08/30 06:49:00;;;;;;;7.00;5.00;;;;;;;;;;5015823;28;20125;-74
2023/08/30 06:51:45;;;;;;;12.07;6.40;;;;;;;;;;5024984;28;20037;-71
2023/08/30 06:54:34;;;;;;;9.73;5.35;;;;;;;;;;5014899;28;20032;-71
2023/08/30 06:57:21;;;;;;;6.10;4.80;;;;;;;;;;5010756;28;20562;-70
2023/08/30 07:00:10;;;;;;;10.18;5.75;;;;;;;;;;5009743;28;20492;-74
2023/08/30 07:02:56;;;;;;;13.75;6.65;;;;;;;;;;5011206;28;20053;-69
2023/08/30 07:05:43;;;;;;;11.68;6.57;;;;;;;;;;5009016;28;20047;-74
2023/08/30 07:08:28;;;;;;;9.35;5.97;;;;;;;;;;5028367;28;20036;-70
2023/08/30 07:11:13;;;;;;;8.43;5.70;;;;;;;;;;5033277;28;20475;-71
2023/08/30 07:13:58;;;;;;;8.20;6.05;;;;;;;;;;5032045;28;20029;-69
2023/08/30 07:16:44;;;;;;;9.88;6.18;;;;;;;;;;5031701;28;20064;-73
2023/08/30 07:19:29;;;;;;;8.18;5.07;;;;;;;;;;5033907;28;20079;-68
2023/08/30 07:22:16;;;;;;;8.70;4.68;;;;;;;;;;5034122;28;20056;-72
2023/08/30 07:25:02;;;;;;;7.43;5.28;;;;;;;;;;5051162;28;20121;-68
2023/08/30 07:27:48;;;;;;;8.02;5.80;;;;;;;;;;5037895;28;20114;-67
2023/08/30 07:30:34;;;;;;;7.28;5.53;;;;;;;;;;5036692;28;20051;-69
2023/08/30 07:33:20;;;;;;;7.90;5.35;;;;;;;;;;5033872;28;20059;-69
2023/08/30 07:36:05;;;;;;;7.28;4.20;;;;;;;;;;5032099;28;20041;-70
2023/08/30 07:38:50;;;;;;;7.55;5.03;;;;;;;;;;5031238;28;20029;-69
2023/08/30 07:41:35;;;;;;;6.25;4.32;;;;;;;;;;5030670;28;20042;-71
2023/08/30 07:44:21;;;;;;;7.68;5.55;;;;;;;;;;5032979;28;20491;-69
2023/08/30 07:47:06;;;;;;;6.13;4.53;;;;;;;;;;5032350;28;20518;-69
2023/08/30 07:49:51;;;;;;;6.65;5.15;;;;;;;;;;5036905;28;20092;-74
2023/08/30 07:52:36;;;;;;;7.30;4.95;;;;;;;;;;5032459;28;20522;-75
2023/08/30 07:55:22;;;;;;;11.00;5.80;;;;;;;;;;5040056;28;20033;-74
2023/08/30 07:58:10;;;;;;;9.60;4.28;;;;;;;;;;5033594;28;20520;-74
2023/08/30 08:00:55;;;;;;;7.57;4.13;;;;;;;;;;5037132;28;20029;-74
2023/08/30 08:06:09;;;;;;;7.72;5.18;;;;;;;;;;5061837;28;20040;-68
2023/08/30 08:08:54;;;;;;;6.10;4.53;;;;;;;;;;5036173;28;20032;-66
2023/08/30 08:11:43;;;;;;;6.97;4.68;;;;;;;;;;5046236;28;20043;-68
2023/08/30 08:14:28;;;;;;;5.75;4.22;;;;;;;;;;5068004;28;20020;-70
2023/08/30 08:17:13;;;;;;;6.82;4.88;;;;;;;;;;5067726;28;20031;-68
2023/08/30 08:19:58;;;;;;;6.85;4.85;;;;;;;;;;5063846;28;20173;-73
2023/08/30 08:22:44;;;;;;;6.78;3.90;;;;;;;;;;5074560;28;20031;-69
2023/08/30 08:25:30;;;;;;;6.95;4.28;;;;;;;;;;5062130;28;20028;-69
2023/08/30 08:28:17;;;;;;;5.38;4.05;;;;;;;;;;5067858;28;20482;-69
2023/08/30 08:31:02;;;;;;;6.38;4.18;;;;;;;;;;5067323;28;20103;-67
2023/08/30 08:33:51;;;;;;;5.47;3.90;;;;;;;;;;5074260;28;20030;-68
2023/08/30 08:36:40;;;;;;;5.03;3.42;;;;;;;;;;5068684;28;20028;-67
2023/08/30 08:39:25;;;;;;;8.27;3.88;;;;;;;;;;5070295;28;20056;-67
2023/08/30 08:42:10;;;;;;;5.55;3.92;;;;;;;;;;5073647;28;20027;-75
2023/08/30 08:44:56;;;;;;;7.60;3.72;;;;;;;;;;5053042;28;20078;-72
2023/08/30 08:47:42;;;;;;;8.35;4.63;;;;;;;;;;5069276;28;20024;-74
2023/08/30 08:50:28;;;;;;;6.32;3.88;;;;;;;;;;5068682;28;20085;-73
2023/08/30 08:53:13;;;;;;;7.05;3.75;;;;;;;;;;5058175;28;20358;-72
2023/08/30 08:56:00;;;;;;;5.97;3.92;;;;;;;;;;5070751;28;20505;-71
2023/08/30 08:58:45;;;;;;;5.28;3.78;;;;;;;;;;5053693;28;20104;-68
2023/08/30 09:01:33;;;;;;;6.07;3.45;;;;;;;;;;5056834;28;20019;-66
2023/08/30 09:04:18;;;;;;;3.83;3.20;;;;;;;;;;5072530;28;20106;-69
2023/08/30 09:07:04;;;;;;;6.47;3.85;;;;;;;;;;5068622;28;20016;-67
2023/08/30 09:09:49;;;;;;;4.10;3.05;;;;;;;;;;5064591;28;20031;-69
2023/08/30 09:12:35;;;;;;;6.07;3.60;;;;;;;;;;5063185;28;20025;-65
2023/08/30 09:15:21;;;;;;;4.10;2.70;;;;;;;;;;5064369;28;20724;-74
2023/08/30 09:18:14;;;;;;;5.13;3.42;;;;;;;;;;5070781;28;20028;-75
2023/08/30 09:21:06;;;;;;;4.45;3.00;;;;;;;;;;5072241;28;20521;-76
2023/08/30 09:24:05;;;;;;;3.72;2.50;;;;;;;;;;5086128;28;20297;-72
2023/08/30 09:26:51;;;;;;;5.90;2.83;;;;;;;;;;5066555;28;20034;-72
2023/08/30 09:29:36;;;;;;;5.35;2.50;;;;;;;;;;5063773;28;20029;-75
2023/08/30 09:32:21;;;;;;;4.68;2.60;;;;;;;;;;5071862;28;20027;-72
2023/08/30 09:35:07;;;;;;;3.85;2.70;;;;;;;;;;5073204;28;20024;-72
2023/08/30 09:37:52;;;;;;;2.38;2.10;;;;;;;;;;5056726;28;20045;-78
2023/08/30 09:40:40;;;;;;;8.00;2.42;;;;;;;;;;5063862;28;20023;-77
2023/08/30 09:43:25;;;;;;;2.58;2.38;;;;;;;;;;5076873;28;20115;-78
2023/08/30 09:46:13;;;;;;;4.35;1.98;;;;;;;;;;5073657;28;20169;-76
2023/08/30 09:48:58;;;;;;;3.15;2.17;;;;;;;;;;5073709;28;20479;-75
2023/08/30 09:51:46;;;;;;;3.22;2.00;;;;;;;;;;5070238;28;20036;-77
2023/08/30 09:54:32;;;;;;;2.58;1.70;;;;;;;;;;5073607;28;20581;-70
2023/08/30 09:57:18;;;;;;;3.55;2.13;;;;;;;;;;5072064;28;20032;-71
2023/08/30 10:00:03;;;;;;;3.22;1.77;;;;;;;;;;5071953;28;20016;-71
2023/08/30 10:02:50;;;;;;;1.60;1.50;;;;;;;;;;5076449;28;20024;-73
2023/08/30 10:05:36;;;;;;;2.10;1.48;;;;;;;;;;5073658;28;20485;-70
2023/08/30 10:08:23;;;;;;;2.97;1.90;;;;;;;;;;5073685;28;20027;-70
2023/08/30 10:11:09;;;;;;;2.72;1.77;;;;;;;;;;5073114;28;20036;-76
2023/08/30 10:13:55;;;;;;;2.13;1.83;;;;;;;;;;5076772;28;20560;-74
2023/08/30 10:16:43;;;;;;;2.00;1.50;;;;;;;;;;5072591;28;20023;-73
2023/08/30 10:19:28;;;;;;;1.52;1.42;;;;;;;;;;5055711;28;20036;-71
2023/08/30 10:22:17;;;;;;;2.88;1.40;;;;;;;;;;5071037;28;20043;-73
2023/08/30 10:25:04;;;;;;;2.95;1.67;;;;;;;;;;5077975;28;20035;-74
2023/08/30 10:27:50;;;;;;;1.52;1.42;;;;;;;;;;5077909;28;20028;-69
2023/08/30 10:30:35;;;;;;;1.98;1.52;;;;;;;;;;5075071;28;20040;-65
2023/08/30 10:33:25;;;;;;;1.52;1.40;;;;;;;;;;5071148;28;20114;-75
2023/08/30 10:36:10;;;;;;;3.17;1.77;;;;;;;;;;5075844;28;20089;-71
2023/08/30 10:38:56;;;;;;;1.67;1.40;;;;;;;;;;5071031;28;20426;-76
2023/08/30 10:41:54;;;;;;;2.28;1.20;;;;;;;;;;5072458;28;20032;-75
2023/08/30 10:44:51;;;;;;;2.03;1.50;;;;;;;;;;5067786;28;20020;-73
2023/08/30 10:47:37;;;;;;;3.92;1.60;;;;;;;;;;5068943;28;20153;-68
2023/08/30 10:50:30;;;;;;;6.15;1.95;;;;;;;;;;5075747;28;20063;-74
2023/08/30 10:53:16;;;;;;;4.43;2.33;;;;;;;;;;5070955;28;20032;-77
2023/08/30 10:56:10;;;;;;;3.17;1.50;;;;;;;;;;5091369;28;20044;-78
2023/08/30 10:58:56;;;;;;;4.15;1.98;;;;;;;;;;5073642;28;20098;-77
2023/08/30 11:01:42;;;;;;;4.28;2.00;;;;;;;;;;5077807;28;20031;-76
2023/08/30 11:04:28;;;;;;;3.35;1.85;;;;;;;;;;5072939;28;20071;-67
2023/08/30 11:07:13;;;;;;;2.50;1.80;;;;;;;;;;5079142;28;20125;-70
2023/08/30 11:09:58;;;;;;;2.65;1.48;;;;;;;;;;5073600;28;20020;-65
2023/08/30 11:12:45;;;;;;;3.38;1.65;;;;;;;;;;5053732;28;20028;-66
2023/08/30 11:15:30;;;;;;;2.35;1.73;;;;;;;;;;5069873;28;20028;-65
2023/08/30 11:18:18;;;;;;;2.33;1.77;;;;;;;;;;5066361;28;20028;-68
2023/08/30 11:21:04;;;;;;;1.50;1.33;;;;;;;;;;5075475;28;20028;-68
2023/08/30 11:23:49;;;;;;;2.70;1.42;;;;;;;;;;5071010;28;20090;-70
2023/08/30 11:26:34;;;;;;;1.75;1.38;;;;;;;;;;5083375;28;20020;-70
2023/08/30 11:29:19;;;;;;;4.10;1.75;;;;;;;;;;5073250;28;20036;-68
2023/08/30 11:32:07;;;;;;;2.60;1.80;;;;;;;;;;5060897;28;20024;-68
2023/08/30 11:34:57;;;;;;;2.20;1.70;;;;;;;;;;5063912;28;20042;-69
2023/08/30 11:37:43;;;;;;;2.53;1.45;;;;;;;;;;5070910;28;20047;-67
2023/08/30 11:40:28;;;;;;;2.97;1.70;;;;;;;;;;5079264;28;20180;-69
2023/08/30 11:43:15;;;;;;;3.92;1.70;;;;;;;;;;5054309;28;20028;-71
2023/08/30 11:46:00;;;;;;;4.32;1.75;;;;;;;;;;5071533;28;20131;-70
2023/08/30 11:48:47;;;;;;;2.30;1.80;;;;;;;;;;5075188;28;20057;-72
2023/08/30 11:51:32;;;;;;;4.90;2.00;;;;;;;;;;5064912;28;20042;-73
2023/08/30 11:54:19;;;;;;;2.70;2.13;;;;;;;;;;5060337;28;20080;-72
2023/08/30 11:57:04;;;;;;;2.97;1.90;;;;;;;;;;5073776;28;20055;-72
2023/08/30 11:59:50;;;;;;;2.80;1.85;;;;;;;;;;5075410;28;20031;-74
2023/08/30 12:02:35;;;;;;;3.75;1.83;;;;;;;;;;5091984;28;20108;-65
2023/08/30 12:05:21;;;;;;;2.25;1.90;;;;;;;;;;5074002;28;20020;-70
2023/08/30 12:08:16;;;;;;;6.45;2.42;;;;;;;;;;5076308;28;20032;-70
2023/08/30 12:11:02;;;;;;;5.90;2.70;;;;;;;;;;5078214;28;20314;-70
2023/08/30 12:13:48;;;;;;;3.85;2.35;;;;;;;;;;5066818;28;20057;-70
2023/08/30 12:16:33;;;;;;;4.53;2.60;;;;;;;;;;5053908;28;20051;-70
2023/08/30 12:19:18;;;;;;;2.63;2.08;;;;;;;;;;5063497;28;20027;-65
2023/08/30 12:22:07;;;;;;;3.55;2.33;;;;;;;;;;5071147;28;20445;-66
2023/08/30 12:24:53;;;;;;;3.15;2.40;;;;;;;;;;5068690;28;20172;-67
2023/08/30 12:27:39;;;;;;;3.58;2.25;;;;;;;;;;5073926;28;20115;-66
2023/08/30 12:30:24;;;;;;;3.63;2.30;;;;;;;;;;5057517;28;20036;-66
2023/08/30 12:33:09;;;;;;;3.40;2.05;;;;;;;;;;5069731;28;20264;-64
2023/08/30 12:35:55;;;;;;;2.65;2.38;;;;;;;;;;5054887;28;20052;-66
2023/08/30 12:38:40;;;;;;;2.50;2.20;;;;;;;;;;5071373;28;20048;-72
2023/08/30 12:41:26;;;;;;;3.42;2.25;;;;;;;;;;5069711;28;20053;-74
2023/08/30 12:44:11;;;;;;;4.47;2.22;;;;;;;;;;5073601;28;20103;-75
2023/08/30 12:46:56;;;;;;;3.10;2.10;;;;;;;;;;5056410;28;20024;-70
2023/08/30 12:49:41;;;;;;;3.33;2.45;;;;;;;;;;5073982;28;20473;-74
2023/08/30 12:52:27;;;;;;;2.75;2.10;;;;;;;;;;5069360;28;20024;-74
2023/08/30 12:55:12;;;;;;;2.65;2.00;;;;;;;;;;5058330;28;20123;-68
2023/08/30 12:57:57;;;;;;;3.75;2.38;;;;;;;;;;5075742;28;20126;-74
2023/08/30 13:00:43;;;;;;;3.80;2.40;;;;;;;;;;5071588;28;20025;-75
2023/08/30 13:03:28;;;;;;;3.75;2.30;;;;;;;;;;5078467;28;20032;-76
2023/08/30 13:06:13;;;;;;;2.65;2.28;;;;;;;;;;5069803;28;20051;-72
2023/08/30 13:08:59;;;;;;;2.75;2.17;;;;;;;;;;5089951;28;20032;-74
2023/08/30 13:11:44;;;;;;;2.67;2.33;;;;;;;;;;5070148;28;20159;-76
2023/08/30 13:14:29;;;;;;;6.68;2.75;;;;;;;;;;5068558;28;20420;-75
2023/08/30 13:17:17;;;;;;;4.05;2.60;;;;;;;;;;5076202;28;20603;-70
2023/08/30 13:20:03;;;;;;;2.92;2.28;;;;;;;;;;5069788;28;20038;-71
2023/08/30 13:22:48;;;;;;;3.22;2.30;;;;;;;;;;5074924;28;20471;-71
2023/08/30 13:25:33;;;;;;;3.17;2.40;;;;;;;;;;5078820;28;20378;-70
2023/08/30 13:28:18;;;;;;;5.68;2.40;;;;;;;;;;5058983;28;20486;-69
2023/08/30 13:31:06;;;;;;;3.63;2.45;;;;;;;;;;5078417;28;20020;-72
2023/08/30 13:33:51;;;;;;;3.30;2.28;;;;;;;;;;5076073;28;20135;-71
2023/08/30 13:36:39;;;;;;;3.78;2.70;;;;;;;;;;5063068;28;20493;-68
2023/08/30 13:39:24;;;;;;;4.57;2.58;;;;;;;;;;5062850;28;20035;-69
2023/08/30 13:42:09;;;;;;;2.80;2.30;;;;;;;;;;5079894;28;20035;-67
2023/08/30 13:44:55;;;;;;;5.95;2.40;;;;;;;;;;5075050;28;20047;-69
2023/08/30 13:47:40;;;;;;;2.72;2.13;;;;;;;;;;5075937;28;20522;-69
2023/08/30 13:50:30;;;;;;;2.17;1.92;;;;;;;;;;5077312;28;20428;-78
2023/08/30 13:53:15;;;;;;;2.35;2.00;;;;;;;;;;5079406;28;20035;-69
2023/08/30 13:56:00;;;;;;;3.83;1.83;;;;;;;;;;5072781;28;20032;-69
2023/08/30 13:58:46;;;;;;;4.03;2.30;;;;;;;;;;5071775;28;20483;-67
2023/08/30 14:01:31;;;;;;;4.10;2.53;;;;;;;;;;5069321;28;20057;-68
2023/08/30 14:04:16;;;;;;;5.13;2.55;;;;;;;;;;5079812;28;20612;-68
2023/08/30 14:07:03;;;;;;;4.40;2.35;;;;;;;;;;5070672;28;20119;-67
2023/08/30 14:09:48;;;;;;;2.95;2.50;;;;;;;;;;5073700;28;20043;-75
2023/08/30 14:12:34;;;;;;;3.53;2.60;;;;;;;;;;5069394;28;20024;-75
2023/08/30 14:15:19;;;;;;;2.80;1.92;;;;;;;;;;5073731;28;20016;-74
2023/08/30 14:18:04;;;;;;;4.53;2.40;;;;;;;;;;5058198;28;20043;-77
2023/08/30 14:20:49;;;;;;;4.15;2.70;;;;;;;;;;5065023;28;20028;-82
2023/08/30 14:23:35;;;;;;;3.35;2.42;;;;;;;;;;5080032;28;20032;-76
2023/08/30 14:26:21;;;;;;;3.80;2.70;;;;;;;;;;5070890;28;20032;-75
2023/08/30 14:29:06;;;;;;;4.07;2.60;;;;;;;;;;5080670;28;20161;-69
2023/08/30 14:31:51;;;;;;;3.33;2.42;;;;;;;;;;5071946;28;20027;-76
2023/08/30 14:34:36;;;;;;;3.05;2.03;;;;;;;;;;5077344;28;20262;-76
2023/08/30 14:37:22;;;;;;;4.28;2.45;;;;;;;;;;5077568;28;20172;-76
2023/08/30 14:40:07;;;;;;;2.85;2.08;;;;;;;;;;5074692;28;20107;-75
2023/08/30 14:42:52;;;;;;;3.90;2.38;;;;;;;;;;5070480;28;20099;-75
2023/08/30 14:45:38;;;;;;;4.60;2.35;;;;;;;;;;5077996;28;20020;-74
2023/08/30 14:48:23;;;;;;;4.78;2.45;;;;;;;;;;5070386;28;20032;-71
2023/08/30 14:51:08;;;;;;;3.33;1.95;;;;;;;;;;5065802;28;20031;-73
2023/08/30 14:53:53;;;;;;;3.85;2.65;;;;;;;;;;5066039;28;20040;-72
2023/08/30 14:56:38;;;;;;;2.97;2.20;;;;;;;;;;5069751;28;20035;-70
2023/08/30 14:59:24;;;;;;;3.50;2.53;;;;;;;;;;5063959;28;20031;-71
2023/08/30 15:02:10;;;;;;;4.40;2.72;;;;;;;;;;5075191;28;20034;-72
2023/08/30 15:04:55;;;;;;;4.35;2.80;;;;;;;;;;5056581;28;20118;-75
2023/08/30 15:07:40;;;;;;;5.05;2.80;;;;;;;;;;5073213;28;20496;-75
2023/08/30 15:10:26;;;;;;;5.03;2.80;;;;;;;;;;5061647;28;20024;-73
2023/08/30 15:13:11;;;;;;;3.97;2.53;;;;;;;;;;5079280;28;20436;-73
2023/08/30 15:15:56;;;;;;;5.35;2.92;;;;;;;;;;5074114;28;20137;-73
2023/08/30 15:18:41;;;;;;;3.58;2.90;;;;;;;;;;5045018;28;20062;-74
2023/08/30 15:21:26;;;;;;;6.85;3.47;;;;;;;;;;5069261;28;20594;-75
2023/08/30 15:24:12;;;;;;;4.63;3.28;;;;;;;;;;5068564;28;20060;-77
2023/08/30 15:26:57;;;;;;;5.35;3.15;;;;;;;;;;5049094;28;20038;-67
2023/08/30 15:29:42;;;;;;;3.63;2.83;;;;;;;;;;5064718;28;20571;-68
2023/08/30 15:32:31;;;;;;;3.72;2.63;;;;;;;;;;5071124;28;20027;-68
2023/08/30 15:35:17;;;;;;;13.25;5.70;;;;;;;;;;5061104;28;20532;-67
2023/08/30 15:38:03;;;;;;;8.90;4.07;;;;;;;;;;5068600;28;20036;-66
2023/08/30 15:40:52;;;;;;;6.13;3.42;;;;;;;;;;5056277;28;20035;-71
2023/08/30 15:43:41;;;;;;;;;;;;;;;;;;5067730;28;20047;-72
2023/08/30 15:46:26;;;;;;;6.90;3.10;;;;;;;;;;5069248;28;20476;-73
2023/08/30 15:49:11;;;;;;;3.85;3.13;;;;;;;;;;5073085;28;20028;-71
2023/08/30 15:51:57;;;;;;;5.88;3.65;;;;;;;;;;5066208;28;20039;-73
2023/08/30 15:54:42;;;;;;;4.90;2.72;;;;;;;;;;5065619;28;20059;-71
2023/08/30 15:57:27;;;;;;;4.10;2.80;;;;;;;;;;5065851;28;20055;-71
2023/08/30 16:00:13;;;;;;;5.25;2.50;;;;;;;;;;5063564;28;20044;-75
2023/08/30 16:02:59;;;;;;;4.07;2.83;;;;;;;;;;5078803;28;20055;-70
2023/08/30 16:05:45;;;;;;;4.22;2.92;;;;;;;;;;5069735;28;20074;-71
2023/08/30 16:08:30;;;;;;;5.50;3.30;;;;;;;;;;5069541;28;20032;-71
2023/08/30 16:11:15;;;;;;;3.33;2.58;;;;;;;;;;5071885;28;20509;-71
2023/08/30 16:14:01;;;;;;;5.32;3.20;;;;;;;;;;5068825;28;20043;-71
2023/08/30 16:16:46;;;;;;;3.63;2.58;;;;;;;;;;5070133;28;20032;-71
2023/08/30 16:19:31;;;;;;;5.43;3.42;;;;;;;;;;5073358;28;20470;-76
2023/08/30 16:22:16;;;;;;;3.65;2.60;;;;;;;;;;5071110;28;20075;-67
2023/08/30 16:25:02;;;;;;;5.30;2.80;;;;;;;;;;5065713;28;20065;-67
2023/08/30 16:27:47;;;;;;;5.00;2.90;;;;;;;;;;5066759;28;20063;-70
2023/08/30 16:30:33;;;;;;;3.85;2.50;;;;;;;;;;5059454;28;20498;-68
2023/08/30 16:33:19;;;;;;;4.80;3.10;;;;;;;;;;5062828;28;20032;-68
2023/08/30 16:36:04;;;;;;;5.75;2.85;;;;;;;;;;5074255;28;20490;-75
2023/08/30 16:38:49;;;;;;;5.93;2.95;;;;;;;;;;5069591;28;20085;-71